Moscow, Russia
Current Conditions -  °F | °C
As of 12:00 PM on Wednesday 28 Jan 2015 (Local Time) from UUWW Reporting Station
Overcast Overcast  
Wind Chill: 17°   Ceiling: 10000
Heat Index: 23°   Visibility: 6mi
Dew Point: 19°   Wind: 4mph
Humidity: 86%   Direction: 180°S
Pressure: 29.91"   Gusts: NA
Location:  55.75°N, 37.62°E
Report Text: UUWW 280900Z 18002MPS 9999 SCT033 OVC100 M05/M07 Q1013 24450240NOSIG
Loading
Personal Weather Stations






























Interactive Weather Map New forecast layout! Learn more

10-Day Weather Forecast

Advertisements
Track Severe Weather on mobile